sensor_id;sensor_type;location;lat;lon;timestamp;P1;durP1;ratioP1;P2;durP2;ratioP2
32850;SDS011;19202;48.992;8.390;2022-11-12T00:01:05;9.95;;;6.18;;
32850;SDS011;19202;48.992;8.390;2022-11-12T00:06:43;10.00;;;6.03;;
32850;SDS011;19202;48.992;8.390;2022-11-12T00:12:21;11.15;;;6.55;;
32850;SDS011;19202;48.992;8.390;2022-11-12T00:17:59;10.25;;;6.30;;
32850;SDS011;19202;48.992;8.390;2022-11-12T00:23:36;10.70;;;5.97;;
32850;SDS011;19202;48.992;8.390;2022-11-12T00:29:14;11.65;;;6.72;;
32850;SDS011;19202;48.992;8.390;2022-11-12T00:34:52;9.93;;;6.07;;
32850;SDS011;19202;48.992;8.390;2022-11-12T00:40:30;11.18;;;6.60;;
32850;SDS011;19202;48.992;8.390;2022-11-12T00:46:08;9.10;;;6.40;;
32850;SDS011;19202;48.992;8.390;2022-11-12T00:51:46;12.02;;;6.25;;
32850;SDS011;19202;48.992;8.390;2022-11-12T00:57:24;11.23;;;6.55;;
32850;SDS011;19202;48.992;8.390;2022-11-12T01:03:02;14.23;;;7.35;;
32850;SDS011;19202;48.992;8.390;2022-11-12T01:08:40;10.00;;;6.13;;
32850;SDS011;19202;48.992;8.390;2022-11-12T01:14:19;13.80;;;7.43;;
32850;SDS011;19202;48.992;8.390;2022-11-12T01:19:56;18.40;;;8.27;;
32850;SDS011;19202;48.992;8.390;2022-11-12T01:25:36;10.90;;;6.72;;
32850;SDS011;19202;48.992;8.390;2022-11-12T01:31:25;14.32;;;7.47;;
32850;SDS011;19202;48.992;8.390;2022-11-12T01:37:04;16.98;;;7.70;;
32850;SDS011;19202;48.992;8.390;2022-11-12T01:42:42;11.25;;;6.35;;
32850;SDS011;19202;48.992;8.390;2022-11-12T01:48:32;11.57;;;6.47;;
32850;SDS011;19202;48.992;8.390;2022-11-12T01:59:54;11.63;;;6.65;;
32850;SDS011;19202;48.992;8.390;2022-11-12T02:05:37;11.82;;;6.55;;
32850;SDS011;19202;48.992;8.390;2022-11-12T02:11:18;11.27;;;6.32;;
32850;SDS011;19202;48.992;8.390;2022-11-12T02:16:58;15.95;;;7.00;;
32850;SDS011;19202;48.992;8.390;2022-11-12T02:22:36;14.70;;;6.88;;
32850;SDS011;19202;48.992;8.390;2022-11-12T02:28:14;13.52;;;7.10;;
32850;SDS011;19202;48.992;8.390;2022-11-12T02:33:53;12.52;;;6.45;;
32850;SDS011;19202;48.992;8.390;2022-11-12T02:39:31;10.23;;;5.95;;
32850;SDS011;19202;48.992;8.390;2022-11-12T02:45:10;13.23;;;7.43;;
32850;SDS011;19202;48.992;8.390;2022-11-12T02:50:48;9.85;;;5.70;;
32850;SDS011;19202;48.992;8.390;2022-11-12T02:56:26;10.45;;;5.25;;
32850;SDS011;19202;48.992;8.390;2022-11-12T03:02:04;8.02;;;4.80;;
32850;SDS011;19202;48.992;8.390;2022-11-12T03:07:42;10.90;;;4.60;;
32850;SDS011;19202;48.992;8.390;2022-11-12T03:13:20;9.25;;;5.05;;
32850;SDS011;19202;48.992;8.390;2022-11-12T03:18:57;6.95;;;4.45;;
32850;SDS011;19202;48.992;8.390;2022-11-12T03:24:35;8.25;;;4.78;;
32850;SDS011;19202;48.992;8.390;2022-11-12T03:30:13;7.65;;;4.57;;
32850;SDS011;19202;48.992;8.390;2022-11-12T03:35:51;7.75;;;4.50;;
32850;SDS011;19202;48.992;8.390;2022-11-12T03:41:29;5.55;;;4.03;;
32850;SDS011;19202;48.992;8.390;2022-11-12T03:47:06;9.30;;;4.40;;
32850;SDS011;19202;48.992;8.390;2022-11-12T03:52:45;6.60;;;4.25;;
32850;SDS011;19202;48.992;8.390;2022-11-12T03:58:24;5.95;;;3.85;;
32850;SDS011;19202;48.992;8.390;2022-11-12T04:04:02;7.25;;;3.70;;
32850;SDS011;19202;48.992;8.390;2022-11-12T04:09:40;6.30;;;4.30;;
32850;SDS011;19202;48.992;8.390;2022-11-12T04:15:18;6.97;;;4.47;;
32850;SDS011;19202;48.992;8.390;2022-11-12T04:20:56;9.00;;;4.88;;
32850;SDS011;19202;48.992;8.390;2022-11-12T04:26:52;5.60;;;3.95;;
32850;SDS011;19202;48.992;8.390;2022-11-12T04:32:31;7.30;;;3.97;;
32850;SDS011;19202;48.992;8.390;2022-11-12T04:38:10;4.50;;;3.53;;
32850;SDS011;19202;48.992;8.390;2022-11-12T04:43:48;8.15;;;4.05;;
32850;SDS011;19202;48.992;8.390;2022-11-12T04:49:44;4.72;;;3.50;;
32850;SDS011;19202;48.992;8.390;2022-11-12T04:55:22;7.50;;;3.90;;
32850;SDS011;19202;48.992;8.390;2022-11-12T05:01:00;6.60;;;3.83;;
32850;SDS011;19202;48.992;8.390;2022-11-12T05:06:40;6.32;;;3.97;;
32850;SDS011;19202;48.992;8.390;2022-11-12T05:12:30;4.85;;;3.50;;
32850;SDS011;19202;48.992;8.390;2022-11-12T05:18:08;6.20;;;3.60;;
32850;SDS011;19202;48.992;8.390;2022-11-12T05:23:46;6.25;;;3.95;;
32850;SDS011;19202;48.992;8.390;2022-11-12T05:29:24;6.05;;;3.83;;
32850;SDS011;19202;48.992;8.390;2022-11-12T05:35:02;5.57;;;3.40;;
32850;SDS011;19202;48.992;8.390;2022-11-12T05:40:43;4.65;;;3.40;;
32850;SDS011;19202;48.992;8.390;2022-11-12T05:46:21;5.00;;;3.38;;
32850;SDS011;19202;48.992;8.390;2022-11-12T05:51:58;6.18;;;3.80;;
32850;SDS011;19202;48.992;8.390;2022-11-12T05:57:36;6.90;;;4.20;;
32850;SDS011;19202;48.992;8.390;2022-11-12T06:03:14;7.35;;;4.43;;
32850;SDS011;19202;48.992;8.390;2022-11-12T06:08:52;6.22;;;4.43;;
32850;SDS011;19202;48.992;8.390;2022-11-12T06:14:30;6.57;;;4.32;;
32850;SDS011;19202;48.992;8.390;2022-11-12T06:20:08;5.97;;;4.03;;
32850;SDS011;19202;48.992;8.390;2022-11-12T06:25:46;8.23;;;4.75;;
32850;SDS011;19202;48.992;8.390;2022-11-12T06:31:24;7.38;;;4.38;;
32850;SDS011;19202;48.992;8.390;2022-11-12T06:37:02;7.10;;;4.60;;
32850;SDS011;19202;48.992;8.390;2022-11-12T06:42:40;7.72;;;5.00;;
32850;SDS011;19202;48.992;8.390;2022-11-12T06:48:18;7.95;;;4.85;;
32850;SDS011;19202;48.992;8.390;2022-11-12T06:53:56;8.00;;;5.50;;
32850;SDS011;19202;48.992;8.390;2022-11-12T06:59:34;7.40;;;5.03;;
32850;SDS011;19202;48.992;8.390;2022-11-12T07:05:12;10.65;;;5.60;;
32850;SDS011;19202;48.992;8.390;2022-11-12T07:10:54;6.93;;;4.57;;
32850;SDS011;19202;48.992;8.390;2022-11-12T07:16:33;6.50;;;4.47;;
32850;SDS011;19202;48.992;8.390;2022-11-12T07:22:11;7.65;;;4.47;;
32850;SDS011;19202;48.992;8.390;2022-11-12T07:27:49;7.38;;;4.25;;
32850;SDS011;19202;48.992;8.390;2022-11-12T07:33:29;7.07;;;4.30;;
32850;SDS011;19202;48.992;8.390;2022-11-12T07:39:08;8.65;;;4.68;;
32850;SDS011;19202;48.992;8.390;2022-11-12T07:44:46;6.68;;;4.00;;
32850;SDS011;19202;48.992;8.390;2022-11-12T07:50:23;8.00;;;4.35;;
32850;SDS011;19202;48.992;8.390;2022-11-12T07:56:02;7.50;;;4.30;;
32850;SDS011;19202;48.992;8.390;2022-11-12T08:01:41;9.27;;;4.40;;
32850;SDS011;19202;48.992;8.390;2022-11-12T08:07:19;6.75;;;4.20;;
32850;SDS011;19202;48.992;8.390;2022-11-12T08:12:57;7.65;;;4.70;;
32850;SDS011;19202;48.992;8.390;2022-11-12T08:18:34;7.78;;;4.72;;
32850;SDS011;19202;48.992;8.390;2022-11-12T08:24:13;5.95;;;4.25;;
32850;SDS011;19202;48.992;8.390;2022-11-12T08:29:50;9.15;;;4.68;;
32850;SDS011;19202;48.992;8.390;2022-11-12T08:35:29;8.38;;;4.68;;
32850;SDS011;19202;48.992;8.390;2022-11-12T08:41:09;6.55;;;4.68;;
32850;SDS011;19202;48.992;8.390;2022-11-12T08:46:49;6.45;;;4.40;;
32850;SDS011;19202;48.992;8.390;2022-11-12T08:52:26;8.35;;;4.45;;
32850;SDS011;19202;48.992;8.390;2022-11-12T08:58:05;7.65;;;4.47;;
32850;SDS011;19202;48.992;8.390;2022-11-12T09:03:43;9.45;;;4.78;;
32850;SDS011;19202;48.992;8.390;2022-11-12T09:09:21;7.65;;;4.43;;
32850;SDS011;19202;48.992;8.390;2022-11-12T09:14:59;7.82;;;4.78;;
32850;SDS011;19202;48.992;8.390;2022-11-12T09:20:37;7.45;;;4.30;;
32850;SDS011;19202;48.992;8.390;2022-11-12T09:26:15;9.18;;;5.25;;
32850;SDS011;19202;48.992;8.390;2022-11-12T09:31:52;11.18;;;6.90;;
32850;SDS011;19202;48.992;8.390;2022-11-12T09:37:30;5.95;;;4.60;;
32850;SDS011;19202;48.992;8.390;2022-11-12T09:43:15;6.60;;;4.63;;
32850;SDS011;19202;48.992;8.390;2022-11-12T09:55:20;8.73;;;5.60;;
32850;SDS011;19202;48.992;8.390;2022-11-12T10:01:01;8.73;;;5.68;;
32850;SDS011;19202;48.992;8.390;2022-11-12T10:06:53;12.32;;;7.38;;
32850;SDS011;19202;48.992;8.390;2022-11-12T10:24:24;8.73;;;5.63;;
32850;SDS011;19202;48.992;8.390;2022-11-12T10:35:55;10.80;;;6.32;;
32850;SDS011;19202;48.992;8.390;2022-11-12T10:42:02;16.73;;;8.88;;
32850;SDS011;19202;48.992;8.390;2022-11-12T10:47:42;13.75;;;8.20;;
32850;SDS011;19202;48.992;8.390;2022-11-12T10:53:33;15.95;;;8.68;;
32850;SDS011;19202;48.992;8.390;2022-11-12T10:59:14;17.58;;;10.48;;
32850;SDS011;19202;48.992;8.390;2022-11-12T11:04:52;21.27;;;11.20;;
32850;SDS011;19202;48.992;8.390;2022-11-12T11:16:11;20.27;;;10.57;;
32850;SDS011;19202;48.992;8.390;2022-11-12T11:21:55;19.95;;;11.32;;
32850;SDS011;19202;48.992;8.390;2022-11-12T11:27:46;21.20;;;12.32;;
32850;SDS011;19202;48.992;8.390;2022-11-12T11:45:08;21.55;;;12.23;;
32850;SDS011;19202;48.992;8.390;2022-11-12T11:56:40;24.30;;;13.18;;
32850;SDS011;19202;48.992;8.390;2022-11-12T12:02:27;22.55;;;12.15;;
32850;SDS011;19202;48.992;8.390;2022-11-12T12:08:18;22.48;;;13.30;;
32850;SDS011;19202;48.992;8.390;2022-11-12T12:25:50;19.00;;;11.75;;
32850;SDS011;19202;48.992;8.390;2022-11-12T12:31:31;16.58;;;10.52;;
32850;SDS011;19202;48.992;8.390;2022-11-12T12:43:16;15.70;;;9.48;;
32850;SDS011;19202;48.992;8.390;2022-11-12T12:48:58;14.43;;;9.15;;
32850;SDS011;19202;48.992;8.390;2022-11-12T13:12:00;13.05;;;9.20;;
32850;SDS011;19202;48.992;8.390;2022-11-12T13:17:42;12.60;;;8.10;;
32850;SDS011;19202;48.992;8.390;2022-11-12T13:23:43;15.93;;;9.00;;
32850;SDS011;19202;48.992;8.390;2022-11-12T13:29:42;13.60;;;8.50;;
32850;SDS011;19202;48.992;8.390;2022-11-12T13:41:05;14.27;;;8.65;;
32850;SDS011;19202;48.992;8.390;2022-11-12T13:46:51;15.07;;;9.18;;
32850;SDS011;19202;48.992;8.390;2022-11-12T13:52:32;17.48;;;9.25;;
32850;SDS011;19202;48.992;8.390;2022-11-12T13:58:24;15.77;;;9.45;;
32850;SDS011;19202;48.992;8.390;2022-11-12T14:04:09;15.88;;;10.40;;
32850;SDS011;19202;48.992;8.390;2022-11-12T14:09:58;13.52;;;9.10;;
32850;SDS011;19202;48.992;8.390;2022-11-12T14:16:02;16.20;;;9.60;;
32850;SDS011;19202;48.992;8.390;2022-11-12T14:22:01;13.15;;;8.93;;
32850;SDS011;19202;48.992;8.390;2022-11-12T14:27:50;13.80;;;9.35;;
32850;SDS011;19202;48.992;8.390;2022-11-12T14:33:30;14.52;;;9.60;;
32850;SDS011;19202;48.992;8.390;2022-11-12T14:39:09;14.00;;;9.13;;
32850;SDS011;19202;48.992;8.390;2022-11-12T14:44:47;15.93;;;9.98;;
32850;SDS011;19202;48.992;8.390;2022-11-12T14:50:31;16.95;;;10.18;;
32850;SDS011;19202;48.992;8.390;2022-11-12T14:56:12;21.40;;;9.02;;
32850;SDS011;19202;48.992;8.390;2022-11-12T15:02:24;13.52;;;8.77;;
32850;SDS011;19202;48.992;8.390;2022-11-12T15:08:09;13.38;;;8.48;;
32850;SDS011;19202;48.992;8.390;2022-11-12T15:13:48;16.08;;;9.13;;
32850;SDS011;19202;48.992;8.390;2022-11-12T15:19:28;17.40;;;9.38;;
32850;SDS011;19202;48.992;8.390;2022-11-12T15:31:06;13.57;;;8.82;;
32850;SDS011;19202;48.992;8.390;2022-11-12T15:36:53;13.65;;;9.05;;
32850;SDS011;19202;48.992;8.390;2022-11-12T15:42:36;14.32;;;9.65;;
32850;SDS011;19202;48.992;8.390;2022-11-12T15:48:16;15.57;;;9.57;;
32850;SDS011;19202;48.992;8.390;2022-11-12T15:53:54;16.58;;;9.88;;
32850;SDS011;19202;48.992;8.390;2022-11-12T15:59:31;15.65;;;9.20;;
32850;SDS011;19202;48.992;8.390;2022-11-12T16:05:11;15.93;;;9.75;;
32850;SDS011;19202;48.992;8.390;2022-11-12T16:10:50;16.42;;;10.25;;
32850;SDS011;19202;48.992;8.390;2022-11-12T16:16:30;15.63;;;9.77;;
32850;SDS011;19202;48.992;8.390;2022-11-12T16:22:09;19.25;;;10.57;;
32850;SDS011;19202;48.992;8.390;2022-11-12T16:27:49;18.75;;;11.55;;
32850;SDS011;19202;48.992;8.390;2022-11-12T16:33:27;22.60;;;12.50;;
32850;SDS011;19202;48.992;8.390;2022-11-12T16:39:05;21.58;;;12.60;;
32850;SDS011;19202;48.992;8.390;2022-11-12T16:44:43;26.20;;;14.85;;
32850;SDS011;19202;48.992;8.390;2022-11-12T16:50:22;26.17;;;14.60;;
32850;SDS011;19202;48.992;8.390;2022-11-12T16:56:02;28.05;;;14.85;;
32850;SDS011;19202;48.992;8.390;2022-11-12T17:01:39;30.05;;;14.23;;
32850;SDS011;19202;48.992;8.390;2022-11-12T17:07:18;31.10;;;16.67;;
32850;SDS011;19202;48.992;8.390;2022-11-12T17:12:56;28.42;;;14.93;;
32850;SDS011;19202;48.992;8.390;2022-11-12T17:18:33;27.05;;;15.82;;
32850;SDS011;19202;48.992;8.390;2022-11-12T17:24:12;32.40;;;17.73;;
32850;SDS011;19202;48.992;8.390;2022-11-12T17:29:49;30.70;;;17.02;;
32850;SDS011;19202;48.992;8.390;2022-11-12T17:35:27;27.15;;;15.48;;
32850;SDS011;19202;48.992;8.390;2022-11-12T17:41:06;31.98;;;15.43;;
32850;SDS011;19202;48.992;8.390;2022-11-12T17:46:45;29.42;;;15.05;;
32850;SDS011;19202;48.992;8.390;2022-11-12T17:52:24;28.85;;;15.13;;
32850;SDS011;19202;48.992;8.390;2022-11-12T17:58:01;29.40;;;17.75;;
32850;SDS011;19202;48.992;8.390;2022-11-12T18:03:41;22.92;;;13.65;;
32850;SDS011;19202;48.992;8.390;2022-11-12T18:09:20;29.15;;;17.73;;
32850;SDS011;19202;48.992;8.390;2022-11-12T18:14:58;28.73;;;16.55;;
32850;SDS011;19202;48.992;8.390;2022-11-12T18:20:36;56.25;;;26.38;;
32850;SDS011;19202;48.992;8.390;2022-11-12T18:26:16;41.72;;;19.98;;
32850;SDS011;19202;48.992;8.390;2022-11-12T18:31:55;38.40;;;21.75;;
32850;SDS011;19202;48.992;8.390;2022-11-12T18:37:33;31.85;;;17.25;;
32850;SDS011;19202;48.992;8.390;2022-11-12T18:43:11;24.35;;;14.77;;
32850;SDS011;19202;48.992;8.390;2022-11-12T18:48:49;30.65;;;14.80;;
32850;SDS011;19202;48.992;8.390;2022-11-12T18:54:27;25.65;;;13.68;;
32850;SDS011;19202;48.992;8.390;2022-11-12T19:00:06;27.23;;;13.30;;
32850;SDS011;19202;48.992;8.390;2022-11-12T19:05:44;27.80;;;12.27;;
32850;SDS011;19202;48.992;8.390;2022-11-12T19:11:22;23.38;;;13.07;;
32850;SDS011;19202;48.992;8.390;2022-11-12T19:17:01;27.70;;;14.07;;
32850;SDS011;19202;48.992;8.390;2022-11-12T19:22:39;22.48;;;12.35;;
32850;SDS011;19202;48.992;8.390;2022-11-12T19:28:17;24.63;;;13.45;;
32850;SDS011;19202;48.992;8.390;2022-11-12T19:33:54;23.70;;;13.50;;
32850;SDS011;19202;48.992;8.390;2022-11-12T19:39:32;23.38;;;12.35;;
32850;SDS011;19202;48.992;8.390;2022-11-12T19:45:11;27.13;;;13.68;;
32850;SDS011;19202;48.992;8.390;2022-11-12T19:50:48;22.75;;;13.13;;
32850;SDS011;19202;48.992;8.390;2022-11-12T19:56:27;40.75;;;18.40;;
32850;SDS011;19202;48.992;8.390;2022-11-12T20:02:06;20.27;;;11.40;;
32850;SDS011;19202;48.992;8.390;2022-11-12T20:07:47;22.23;;;11.98;;
32850;SDS011;19202;48.992;8.390;2022-11-12T20:13:25;23.77;;;11.95;;
32850;SDS011;19202;48.992;8.390;2022-11-12T20:19:03;23.98;;;12.20;;
32850;SDS011;19202;48.992;8.390;2022-11-12T20:24:41;21.83;;;12.27;;
32850;SDS011;19202;48.992;8.390;2022-11-12T20:30:19;19.88;;;11.25;;
32850;SDS011;19202;48.992;8.390;2022-11-12T20:36:10;25.65;;;12.23;;
32850;SDS011;19202;48.992;8.390;2022-11-12T20:41:50;22.40;;;11.98;;
32850;SDS011;19202;48.992;8.390;2022-11-12T21:03:40;16.15;;;9.40;;
32850;SDS011;19202;48.992;8.390;2022-11-12T21:25:25;16.83;;;9.82;;
32850;SDS011;19202;48.992;8.390;2022-11-12T21:36:42;15.38;;;9.32;;
32850;SDS011;19202;48.992;8.390;2022-11-12T21:42:20;17.63;;;9.48;;
32850;SDS011;19202;48.992;8.390;2022-11-12T21:47:58;15.30;;;9.20;;
32850;SDS011;19202;48.992;8.390;2022-11-12T21:53:36;17.40;;;9.77;;
32850;SDS011;19202;48.992;8.390;2022-11-12T21:59:15;16.88;;;9.60;;
32850;SDS011;19202;48.992;8.390;2022-11-12T22:04:52;17.90;;;9.93;;
32850;SDS011;19202;48.992;8.390;2022-11-12T22:10:30;19.15;;;9.13;;
32850;SDS011;19202;48.992;8.390;2022-11-12T22:21:48;18.60;;;9.73;;
32850;SDS011;19202;48.992;8.390;2022-11-12T22:27:26;15.30;;;8.98;;
32850;SDS011;19202;48.992;8.390;2022-11-12T22:33:07;16.27;;;9.35;;
32850;SDS011;19202;48.992;8.390;2022-11-12T22:38:46;15.80;;;8.65;;
32850;SDS011;19202;48.992;8.390;2022-11-12T22:44:25;15.45;;;8.60;;
32850;SDS011;19202;48.992;8.390;2022-11-12T22:50:03;15.52;;;8.80;;
32850;SDS011;19202;48.992;8.390;2022-11-12T22:55:41;17.58;;;8.82;;
32850;SDS011;19202;48.992;8.390;2022-11-12T23:06:59;14.85;;;8.60;;
32850;SDS011;19202;48.992;8.390;2022-11-12T23:12:37;14.50;;;8.68;;
32850;SDS011;19202;48.992;8.390;2022-11-12T23:18:14;18.83;;;8.45;;
32850;SDS011;19202;48.992;8.390;2022-11-12T23:23:54;16.52;;;8.48;;
32850;SDS011;19202;48.992;8.390;2022-11-12T23:29:33;15.00;;;8.35;;
32850;SDS011;19202;48.992;8.390;2022-11-12T23:35:11;13.80;;;8.30;;
32850;SDS011;19202;48.992;8.390;2022-11-12T23:40:52;14.52;;;8.63;;
32850;SDS011;19202;48.992;8.390;2022-11-12T23:46:32;14.75;;;8.65;;
32850;SDS011;19202;48.992;8.390;2022-11-12T23:52:10;13.98;;;8.50;;
32850;SDS011;19202;48.992;8.390;2022-11-12T23:57:47;18.80;;;8.68;;
